Melrose, Connecticut
Current Conditions -  °F | °C
As of 7:51 PM on Sunday 23 Nov 2014 (Local Time) from KBDL Reporting Station
Overcast Overcast  
Wind Chill: 43°   Ceiling: 25000
Heat Index: 47°   Visibility: 10mi
Dew Point: 28°   Wind: 8mph
Humidity: 48%   Direction: 180°S
Pressure: 30.12"   Gusts: NA
Location:  41.94°N, 72.52°W
Report Text: KBDL 240051Z 18007KT 10SM FEW090 OVC250 08/M02 A3012 RMK AO2 SLP200 T00831022
Loading
Personal Weather Stations






























Interactive Weather Map New forecast layout! Learn more

10-Day Weather Forecast

Advertisements
Track Severe Weather on mobile